createdAt,value
2023-02-11T00:00:42.507Z,100777.78
2023-02-11T00:03:10.908Z,100785.59
2023-02-11T00:05:38.753Z,100778.72
2023-02-11T00:08:06.609Z,100783.88
2023-02-11T00:10:34.645Z,100782.09
2023-02-11T00:13:02.580Z,100784.69
2023-02-11T00:15:30.341Z,100788.19
2023-02-11T00:17:59.421Z,100773.50
2023-02-11T00:20:27.180Z,100776.13
2023-02-11T00:22:54.906Z,100778.72
2023-02-11T00:25:22.636Z,100775.25
2023-02-11T00:27:50.386Z,100769.16
2023-02-11T00:30:18.240Z,100766.53
2023-02-11T00:32:46.099Z,100759.59
2023-02-11T00:35:15.572Z,100766.53
2023-02-11T00:37:43.404Z,100763.91
2023-02-11T00:40:12.788Z,100766.44
2023-02-11T00:42:40.777Z,100770.72
2023-02-11T00:45:09.751Z,100765.47
2023-02-11T00:47:37.840Z,100773.22
2023-02-11T00:50:06.599Z,100767.19
2023-02-11T00:52:35.895Z,100771.53
2023-02-11T00:55:03.707Z,100775.88
2023-02-11T00:57:33.338Z,100768.16
2023-02-11T01:00:01.072Z,100766.44
2023-02-11T01:02:30.857Z,100762.13
2023-02-11T01:04:59.746Z,100761.25
2023-02-11T01:07:28.299Z,100754.38
2023-02-11T01:09:57.643Z,100747.50
2023-02-11T01:12:25.901Z,100736.22
2023-02-11T01:14:53.711Z,100733.66
2023-02-11T01:17:21.509Z,100736.22
2023-02-11T01:19:51.094Z,100731.88
2023-02-11T01:22:18.953Z,100727.53
2023-02-11T01:24:48.357Z,100729.22
2023-02-11T01:27:17.520Z,100721.47
2023-02-11T01:29:45.726Z,100712.81
2023-02-11T01:32:14.245Z,100718.81
2023-02-11T01:34:41.976Z,100715.34
2023-02-11T01:37:09.716Z,100715.34
2023-02-11T01:39:37.482Z,100718.75
2023-02-11T01:42:06.651Z,100722.25
2023-02-11T01:44:38.467Z,100712.69
2023-02-11T01:47:06.917Z,100718.75
2023-02-11T01:49:37.445Z,100712.78
2023-02-11T01:52:10.405Z,100723.00
2023-02-11T01:55:00.656Z,100729.72
2023-02-11T01:57:33.382Z,100722.09
2023-02-11T02:00:09.222Z,100719.66
2023-02-11T02:02:50.158Z,100714.53
2023-02-11T02:05:25.525Z,100708.47
2023-02-11T02:08:01.285Z,100698.94
2023-02-11T02:10:31.318Z,100698.94
2023-02-11T02:12:59.046Z,100692.91
2023-02-11T02:15:34.115Z,100705.84
2023-02-11T02:18:18.259Z,100704.09
2023-02-11T02:21:27.658Z,100699.81
2023-02-11T02:24:32.616Z,100697.19
2023-02-11T02:27:20.576Z,100694.63
2023-02-11T02:30:15.750Z,100696.34
2023-02-11T02:32:56.825Z,100692.84
2023-02-11T02:35:36.604Z,100687.69
2023-02-11T02:38:09.582Z,100686.84
2023-02-11T02:40:43.018Z,100683.34
2023-02-11T02:43:12.163Z,100679.91
2023-02-11T02:45:39.991Z,100669.47
2023-02-11T02:48:29.329Z,100659.97
2023-02-11T02:51:08.636Z,100657.38
2023-02-11T02:53:51.021Z,100650.44
2023-02-11T02:56:26.471Z,100653.03
2023-02-11T02:59:23.266Z,100662.56
2023-02-11T03:02:03.478Z,100662.44
2023-02-11T03:04:41.746Z,100658.16
2023-02-11T03:07:17.016Z,100647.81
2023-02-11T03:09:55.816Z,100651.28
2023-02-11T03:12:28.744Z,100650.44
2023-02-11T03:14:56.432Z,100642.63
2023-02-11T03:17:26.316Z,100641.75
2023-02-11T03:19:57.806Z,100638.28
2023-02-11T03:22:31.497Z,100640.91
2023-02-11T03:25:03.364Z,100635.69
2023-02-11T03:27:42.492Z,100631.34
2023-02-11T03:30:14.089Z,100631.34
2023-02-11T03:32:44.974Z,100635.66
2023-02-11T03:35:19.635Z,100638.25
2023-02-11T03:37:53.313Z,100633.94
2023-02-11T03:40:23.454Z,100647.81
2023-02-11T03:42:55.619Z,100639.13
2023-02-11T03:45:26.043Z,100650.41
2023-02-11T03:48:04.461Z,100645.22
2023-02-11T03:50:36.808Z,100636.56
2023-02-11T03:53:06.029Z,100639.16
2023-02-11T03:55:37.983Z,100640.91
2023-02-11T03:58:05.819Z,100644.31
2023-02-11T04:00:36.609Z,100650.22
2023-02-11T04:03:04.553Z,100646.00
2023-02-11T04:05:37.295Z,100650.34
2023-02-11T04:08:05.708Z,100654.72
2023-02-11T04:10:33.542Z,100655.59
2023-02-11T04:13:01.249Z,100662.53
2023-02-11T04:15:29.149Z,100654.75
2023-02-11T04:17:56.938Z,100660.81
2023-02-11T04:20:24.883Z,100655.63
2023-02-11T04:22:53.950Z,100660.81
2023-02-11T04:25:22.066Z,100664.25
2023-02-11T04:27:49.845Z,100660.78
2023-02-11T04:30:17.576Z,100658.19
2023-02-11T04:32:45.544Z,100660.78
2023-02-11T04:35:13.322Z,100667.72
2023-02-11T04:37:41.059Z,100666.84
2023-02-11T04:40:11.421Z,100660.81
2023-02-11T04:42:39.210Z,100667.78
2023-02-11T04:45:07.968Z,100652.94
2023-02-11T04:47:37.598Z,100648.56
2023-02-11T04:50:05.710Z,100637.31
2023-02-11T04:52:33.456Z,100643.38
2023-02-11T04:55:01.181Z,100642.44
2023-02-11T04:57:30.265Z,100646.78
2023-02-11T04:59:58.023Z,100641.59
2023-02-11T05:02:25.894Z,100644.16
2023-02-11T05:04:53.659Z,100639.78
2023-02-11T05:07:21.377Z,100641.56
2023-02-11T05:09:49.221Z,100635.44
2023-02-11T05:12:16.985Z,100620.66
2023-02-11T05:14:46.129Z,100616.28
2023-02-11T05:17:13.877Z,100611.03
2023-02-11T05:19:42.840Z,100606.72
2023-02-11T05:22:10.640Z,100578.94
2023-02-11T05:24:38.376Z,100578.91
2023-02-11T05:27:06.088Z,100585.88
2023-02-11T05:29:33.859Z,100583.22
2023-02-11T05:32:02.927Z,100572.72
2023-02-11T05:34:30.708Z,100572.81
2023-02-11T05:36:58.428Z,100580.63
2023-02-11T05:39:26.215Z,100583.25
2023-02-11T05:41:54.000Z,100584.25
2023-02-11T05:44:22.049Z,100581.59
2023-02-11T05:46:50.220Z,100587.69
2023-02-11T05:49:19.618Z,100586.78
2023-02-11T05:51:47.388Z,100583.31
2023-02-11T05:54:15.201Z,100574.56
2023-02-11T05:56:44.833Z,100583.31
2023-02-11T05:59:14.696Z,100595.44
2023-02-11T06:01:42.487Z,100603.22
2023-02-11T06:04:10.251Z,100597.16
2023-02-11T06:06:39.336Z,100600.59
2023-02-11T06:09:07.137Z,100602.28
2023-02-11T06:11:34.893Z,100611.78
2023-02-11T06:14:02.941Z,100616.88
2023-02-11T06:16:30.874Z,100609.09
2023-02-11T06:18:58.706Z,100611.63
2023-02-11T06:21:36.347Z,100604.75
2023-02-11T06:24:11.813Z,100612.59
2023-02-11T06:26:39.558Z,100603.78
2023-02-11T06:29:07.340Z,100607.38
2023-02-11T06:31:37.773Z,100604.66
2023-02-11T06:34:06.048Z,100597.81
2023-02-11T06:36:34.035Z,100607.41
2023-02-11T06:39:01.792Z,100601.31
2023-02-11T06:41:31.070Z,100600.38
2023-02-11T06:43:58.788Z,100605.59
2023-02-11T06:46:26.808Z,100601.22
2023-02-11T06:48:54.632Z,100613.25
2023-02-11T06:51:22.344Z,100612.47
2023-02-11T06:53:50.567Z,100619.38
2023-02-11T06:56:20.194Z,100618.53
2023-02-11T06:58:53.389Z,100626.44
2023-02-11T07:01:21.376Z,100625.47
2023-02-11T07:03:52.452Z,100623.81
2023-02-11T07:06:24.787Z,100615.94
2023-02-11T07:08:55.623Z,100608.94
2023-02-11T07:11:25.899Z,100614.84
2023-02-11T07:13:57.541Z,100623.66
2023-02-11T07:16:25.327Z,100618.44
2023-02-11T07:18:53.214Z,100616.63
2023-02-11T07:21:22.534Z,100616.59
2023-02-11T07:23:50.395Z,100614.84
2023-02-11T07:26:21.275Z,100602.66
2023-02-11T07:28:48.972Z,100610.47
2023-02-11T07:31:20.602Z,100615.53
2023-02-11T07:33:48.545Z,100626.84
2023-02-11T07:36:17.586Z,100621.56
2023-02-11T07:38:45.519Z,100624.97
2023-02-11T07:41:20.597Z,100631.75
2023-02-11T07:43:48.715Z,100626.44
2023-02-11T07:46:19.858Z,100622.03
2023-02-11T07:48:47.966Z,100622.88
2023-02-11T07:51:17.821Z,100619.38
2023-02-11T07:53:45.861Z,100616.56
2023-02-11T07:56:15.195Z,100608.63
2023-02-11T07:58:43.343Z,100597.16
2023-02-11T08:01:14.234Z,100590.16
2023-02-11T08:03:43.779Z,100591.53
2023-02-11T08:06:13.191Z,100584.59
2023-02-11T08:08:41.276Z,100579.59
2023-02-11T08:11:09.300Z,100585.22
2023-02-11T08:13:37.637Z,100588.81
2023-02-11T08:16:06.749Z,100586.13
2023-02-11T08:18:35.817Z,100598.31
2023-02-11T08:21:09.308Z,100603.44
2023-02-11T08:23:38.116Z,100607.56
2023-02-11T08:26:07.475Z,100607.47
2023-02-11T08:28:36.659Z,100610.94
2023-02-11T08:31:07.728Z,100615.25
2023-02-11T08:33:35.655Z,100620.69
2023-02-11T08:36:10.947Z,100619.84
2023-02-11T08:38:39.130Z,100615.47
2023-02-11T08:41:07.852Z,100608.78
2023-02-11T08:43:35.647Z,100599.34
2023-02-11T08:46:04.095Z,100600.84
2023-02-11T08:48:31.826Z,100594.44
2023-02-11T08:50:59.694Z,100582.63
2023-02-11T08:53:28.772Z,100577.13
2023-02-11T08:55:58.093Z,100567.59
2023-02-11T08:58:25.913Z,100571.94
2023-02-11T09:00:54.112Z,100582.22
2023-02-11T09:03:22.072Z,100587.41
2023-02-11T09:05:53.106Z,100598.19
2023-02-11T09:08:21.752Z,100606.09
2023-02-11T09:10:51.147Z,100603.16
2023-02-11T09:13:19.104Z,100602.53
2023-02-11T09:15:47.428Z,100595.19
2023-02-11T09:18:15.304Z,100594.13
2023-02-11T09:20:43.235Z,100584.91
2023-02-11T09:23:12.350Z,100578.06
2023-02-11T09:25:40.624Z,100574.00
2023-02-11T09:28:11.413Z,100580.66
2023-02-11T09:30:39.711Z,100574.94
2023-02-11T09:33:07.685Z,100578.56
2023-02-11T09:35:35.679Z,100566.59
2023-02-11T09:38:03.497Z,100568.66
2023-02-11T09:40:31.436Z,100569.44
2023-02-11T09:43:05.172Z,100573.31
2023-02-11T09:45:34.386Z,100570.84
2023-02-11T09:48:06.578Z,100574.03
2023-02-11T09:50:37.290Z,100572.88
2023-02-11T09:53:12.785Z,100583.63
2023-02-11T09:55:43.175Z,100588.69
2023-02-11T09:58:15.337Z,100589.34
2023-02-11T10:00:49.851Z,100587.19
2023-02-11T10:03:43.530Z,100591.25
2023-02-11T10:06:25.795Z,100594.66
2023-02-11T10:09:03.150Z,100598.63
2023-02-11T10:11:41.897Z,100599.91
2023-02-11T10:14:22.496Z,100595.50
2023-02-11T10:17:04.425Z,100601.97
2023-02-11T10:19:44.163Z,100596.31
2023-02-11T10:22:18.784Z,100595.56
2023-02-11T10:24:53.398Z,100601.13
2023-02-11T10:27:23.031Z,100595.69
2023-02-11T10:29:54.747Z,100585.78
2023-02-11T10:32:33.437Z,100592.22
2023-02-11T10:35:10.429Z,100595.16
2023-02-11T10:37:38.146Z,100585.72
2023-02-11T10:40:08.317Z,100590.31
2023-02-11T10:42:36.943Z,100589.28
2023-02-11T10:45:07.278Z,100582.03
2023-02-11T10:47:39.433Z,100572.38
2023-02-11T10:50:20.945Z,100571.19
2023-02-11T10:52:51.097Z,100569.38
2023-02-11T10:55:21.648Z,100560.66
2023-02-11T10:57:57.485Z,100542.50
2023-02-11T11:00:34.169Z,100546.78
2023-02-11T11:03:05.871Z,100539.31
2023-02-11T11:05:36.162Z,100537.22
2023-02-11T11:08:06.628Z,100532.19
2023-02-11T11:10:43.419Z,100528.25
2023-02-11T11:13:28.615Z,100525.66
2023-02-11T11:16:16.532Z,100536.19
2023-02-11T11:18:47.461Z,100532.91
2023-02-11T11:21:18.972Z,100536.31
2023-02-11T11:23:53.594Z,100538.09
2023-02-11T11:26:25.059Z,100542.41
2023-02-11T11:28:58.122Z,100531.03
2023-02-11T11:31:29.526Z,100548.72
2023-02-11T11:34:01.186Z,100532.66
2023-02-11T11:36:40.197Z,100525.34
2023-02-11T11:39:20.415Z,100527.91
2023-02-11T11:41:57.380Z,100526.75
2023-02-11T11:44:29.789Z,100523.34
2023-02-11T11:47:31.225Z,100522.22
2023-02-11T11:50:26.308Z,100513.19
2023-02-11T11:53:01.188Z,100516.16
2023-02-11T11:55:34.248Z,100517.22
2023-02-11T11:58:02.058Z,100518.25
2023-02-11T12:00:36.422Z,100514.91
2023-02-11T12:03:34.010Z,100511.19
2023-02-11T12:06:21.986Z,100519.63
2023-02-11T12:09:01.676Z,100515.34
2023-02-11T12:11:37.346Z,100503.34
2023-02-11T12:14:14.866Z,100497.91
2023-02-11T12:16:53.783Z,100501.88
2023-02-11T12:19:45.460Z,100516.28
2023-02-11T12:22:26.756Z,100516.34
2023-02-11T12:25:19.743Z,100517.91
2023-02-11T12:27:55.757Z,100517.28
2023-02-11T12:30:40.003Z,100516.28
2023-02-11T12:33:16.545Z,100508.66
2023-02-11T12:35:54.941Z,100524.66
2023-02-11T12:38:40.547Z,100528.22
2023-02-11T12:41:42.969Z,100518.91
2023-02-11T12:44:24.152Z,100518.16
2023-02-11T12:47:02.120Z,100516.47
2023-02-11T12:49:52.165Z,100510.31
2023-02-11T12:52:41.532Z,100519.91
2023-02-11T12:55:20.812Z,100503.13
2023-02-11T12:57:51.076Z,100500.63
2023-02-11T13:00:22.184Z,100507.50
2023-02-11T13:02:57.350Z,100503.72
2023-02-11T13:05:30.014Z,100498.66
2023-02-11T13:08:03.681Z,100501.56
2023-02-11T13:10:36.012Z,100479.97
2023-02-11T13:13:18.192Z,100481.56
2023-02-11T13:15:51.104Z,100479.94
2023-02-11T13:18:28.513Z,100475.28
2023-02-11T13:21:06.852Z,100485.25
2023-02-11T13:23:42.633Z,100491.47
2023-02-11T13:26:20.519Z,100475.78
2023-02-11T13:28:53.968Z,100477.03
2023-02-11T13:31:26.622Z,100476.50
2023-02-11T13:33:54.473Z,100473.75
2023-02-11T13:36:25.480Z,100473.84
2023-02-11T13:38:56.927Z,100476.59
2023-02-11T13:41:30.329Z,100479.88
2023-02-11T13:44:00.500Z,100474.88
2023-02-11T13:46:30.921Z,100476.94
2023-02-11T13:48:59.474Z,100476.94
2023-02-11T13:51:40.104Z,100474.88
2023-02-11T13:54:09.828Z,100477.13
2023-02-11T13:56:40.888Z,100476.88
2023-02-11T13:59:45.523Z,100467.97
2023-02-11T14:02:43.557Z,100472.59
2023-02-11T14:05:43.655Z,100465.63
2023-02-11T14:08:39.412Z,100463.16
2023-02-11T14:11:12.288Z,100464.50
2023-02-11T14:14:03.295Z,100458.28
2023-02-11T14:16:38.051Z,100454.75
2023-02-11T14:19:09.587Z,100458.00
2023-02-11T14:21:40.795Z,100461.56
2023-02-11T14:24:47.797Z,100452.50
2023-02-11T14:27:25.553Z,100456.28
2023-02-11T14:30:21.285Z,100463.84
2023-02-11T14:33:06.834Z,100468.28
2023-02-11T14:35:42.834Z,100471.88
2023-02-11T14:38:20.678Z,100469.63
2023-02-11T14:40:58.523Z,100469.69
2023-02-11T14:43:31.707Z,100470.00
2023-02-11T14:46:02.342Z,100479.03
2023-02-11T14:48:32.906Z,100483.97
2023-02-11T14:51:07.838Z,100481.41
2023-02-11T14:53:37.677Z,100477.13
2023-02-11T14:56:18.895Z,100486.59
2023-02-11T14:58:51.805Z,100485.19
2023-02-11T15:01:27.923Z,100483.28
2023-02-11T15:03:56.700Z,100492.53
2023-02-11T15:06:30.776Z,100491.38
2023-02-11T15:09:03.817Z,100492.59
2023-02-11T15:11:35.428Z,100498.72
2023-02-11T15:14:09.648Z,100499.81
2023-02-11T15:16:42.476Z,100495.56
2023-02-11T15:19:21.025Z,100495.31
2023-02-11T15:21:51.660Z,100504.00
2023-02-11T15:24:25.359Z,100491.66
2023-02-11T15:27:05.094Z,100505.38
2023-02-11T15:29:38.259Z,100504.78
2023-02-11T15:32:15.440Z,100510.44
2023-02-11T15:34:44.142Z,100499.94
2023-02-11T15:37:20.848Z,100503.00
2023-02-11T15:39:48.630Z,100510.56
2023-02-11T15:42:21.623Z,100513.81
2023-02-11T15:45:11.905Z,100519.28
2023-02-11T15:47:41.871Z,100521.47
2023-02-11T15:50:22.142Z,100514.13
2023-02-11T15:52:52.902Z,100515.22
2023-02-11T15:55:21.645Z,100515.28
2023-02-11T15:57:54.803Z,100516.75
2023-02-11T16:00:25.493Z,100524.47
2023-02-11T16:02:54.031Z,100514.06
2023-02-11T16:05:31.699Z,100526.03
2023-02-11T16:08:01.566Z,100528.19
2023-02-11T16:10:31.986Z,100524.75
2023-02-11T16:13:20.197Z,100537.53
2023-02-11T16:15:52.356Z,100536.97
2023-02-11T16:18:39.595Z,100542.34
2023-02-11T16:21:16.728Z,100544.03
2023-02-11T16:23:51.979Z,100541.63
2023-02-11T16:26:27.885Z,100548.19
2023-02-11T16:29:10.849Z,100545.75
2023-02-11T16:31:40.955Z,100545.56
2023-02-11T16:34:14.722Z,100538.13
2023-02-11T16:36:42.910Z,100551.81
2023-02-11T16:39:12.370Z,100550.81
2023-02-11T16:41:40.291Z,100549.75
2023-02-11T16:44:08.106Z,100559.28
2023-02-11T16:46:38.822Z,100559.38
2023-02-11T16:49:11.363Z,100568.97
2023-02-11T16:51:41.542Z,100575.59
2023-02-11T16:54:14.725Z,100569.31
2023-02-11T16:56:43.113Z,100568.88
2023-02-11T16:59:10.877Z,100565.56
2023-02-11T17:01:40.320Z,100577.25
2023-02-11T17:04:17.512Z,100576.03
2023-02-11T17:06:45.297Z,100577.25
2023-02-11T17:09:19.717Z,100574.31
2023-02-11T17:11:47.761Z,100581.69
2023-02-11T17:14:15.927Z,100584.66
2023-02-11T17:16:47.058Z,100581.38
2023-02-11T17:19:16.640Z,100579.50
2023-02-11T17:21:44.877Z,100578.09
2023-02-11T17:24:14.280Z,100573.16
2023-02-11T17:26:45.181Z,100567.22
2023-02-11T17:29:17.181Z,100566.88
2023-02-11T17:31:45.916Z,100560.66
2023-02-11T17:34:13.920Z,100574.94
2023-02-11T17:36:42.003Z,100575.56
2023-02-11T17:39:10.185Z,100572.91
2023-02-11T17:41:38.858Z,100570.88
2023-02-11T17:44:12.199Z,100576.28
2023-02-11T17:46:39.973Z,100572.19
2023-02-11T17:49:07.748Z,100585.16
2023-02-11T17:51:37.425Z,100575.81
2023-02-11T17:54:07.881Z,100584.22
2023-02-11T17:56:37.431Z,100589.00
2023-02-11T17:59:06.696Z,100600.28
2023-02-11T18:01:37.047Z,100594.06
2023-02-11T18:04:05.482Z,100598.66
2023-02-11T18:06:34.817Z,100610.25
2023-02-11T18:09:04.205Z,100603.41
2023-02-11T18:11:33.729Z,100612.78
2023-02-11T18:14:01.984Z,100605.19
2023-02-11T18:16:30.462Z,100608.59
2023-02-11T18:18:59.942Z,100607.50
2023-02-11T18:21:28.633Z,100613.38
2023-02-11T18:23:56.940Z,100612.50
2023-02-11T18:26:27.948Z,100621.94
2023-02-11T18:28:57.614Z,100617.56
2023-02-11T18:31:26.419Z,100618.47
2023-02-11T18:33:57.010Z,100614.47
2023-02-11T18:36:28.682Z,100621.38
2023-02-11T18:38:58.135Z,100622.63
2023-02-11T18:41:25.976Z,100622.94
2023-02-11T18:43:54.220Z,100625.25
2023-02-11T18:46:24.323Z,100618.72
2023-02-11T18:48:55.841Z,100606.94
2023-02-11T18:51:24.172Z,100613.19
2023-02-11T18:53:53.530Z,100614.94
2023-02-11T18:56:24.558Z,100613.66
2023-02-11T18:58:52.402Z,100620.59
2023-02-11T19:01:22.841Z,100623.06
2023-02-11T19:03:51.613Z,100631.72
2023-02-11T19:06:21.659Z,100631.69
2023-02-11T19:08:49.492Z,100629.31
2023-02-11T19:11:19.831Z,100625.47
2023-02-11T19:13:48.749Z,100626.22
2023-02-11T19:16:19.689Z,100628.09
2023-02-11T19:18:47.546Z,100627.16
2023-02-11T19:21:15.366Z,100626.56
2023-02-11T19:23:43.115Z,100615.78
2023-02-11T19:26:10.833Z,100620.00
2023-02-11T19:28:39.910Z,100626.53
2023-02-11T19:31:09.367Z,100625.88
2023-02-11T19:33:37.690Z,100624.16
2023-02-11T19:36:07.072Z,100624.88
2023-02-11T19:38:35.634Z,100627.31
2023-02-11T19:41:03.745Z,100628.13
2023-02-11T19:43:31.868Z,100623.63
2023-02-11T19:46:02.605Z,100616.44
2023-02-11T19:48:30.558Z,100621.75
2023-02-11T19:50:58.572Z,100622.66
2023-02-11T19:53:26.336Z,100620.81
2023-02-11T19:55:54.442Z,100618.25
2023-02-11T19:58:22.292Z,100612.00
2023-02-11T20:00:50.057Z,100622.00
2023-02-11T20:03:19.157Z,100618.59
2023-02-11T20:05:47.742Z,100620.97
2023-02-11T20:08:16.983Z,100628.97
2023-02-11T20:10:44.727Z,100620.81
2023-02-11T20:13:12.402Z,100624.03
2023-02-11T20:15:40.312Z,100623.06
2023-02-11T20:18:08.118Z,100618.66
2023-02-11T20:20:38.957Z,100624.03
2023-02-11T20:23:06.687Z,100624.09
2023-02-11T20:25:34.410Z,100621.88
2023-02-11T20:28:02.259Z,100612.09
2023-02-11T20:30:30.170Z,100612.78
2023-02-11T20:32:58.450Z,100617.28
2023-02-11T20:35:26.172Z,100619.00
2023-02-11T20:37:55.299Z,100618.88
2023-02-11T20:40:22.976Z,100609.97
2023-02-11T20:42:50.744Z,100619.00
2023-02-11T20:45:18.647Z,100614.34
2023-02-11T20:47:46.338Z,100625.78
2023-02-11T20:50:14.148Z,100628.69
2023-02-11T20:52:41.957Z,100627.88
2023-02-11T20:55:11.010Z,100631.78
2023-02-11T20:57:38.784Z,100639.44
2023-02-11T21:00:07.776Z,100634.09
2023-02-11T21:02:35.469Z,100641.16
2023-02-11T21:05:03.248Z,100647.06
2023-02-11T21:07:31.363Z,100648.41
2023-02-11T21:09:59.167Z,100645.25
2023-02-11T21:12:28.315Z,100643.97
2023-02-11T21:14:57.086Z,100635.94
2023-02-11T21:17:26.363Z,100642.44
2023-02-11T21:19:54.145Z,100643.22
2023-02-11T21:22:21.865Z,100643.31
2023-02-11T21:24:51.733Z,100642.34
2023-02-11T21:27:19.763Z,100639.25
2023-02-11T21:29:54.287Z,100649.53
2023-02-11T21:32:22.553Z,100649.47
2023-02-11T21:34:50.270Z,100646.13
2023-02-11T21:37:18.051Z,100652.59
2023-02-11T21:39:45.774Z,100651.56
2023-02-11T21:42:13.479Z,100654.84
2023-02-11T21:44:44.315Z,100661.94
2023-02-11T21:47:13.370Z,100651.72
2023-02-11T21:49:41.251Z,100659.84
2023-02-11T21:52:09.059Z,100659.06
2023-02-11T21:54:36.740Z,100670.41
2023-02-11T21:57:04.623Z,100671.31
2023-02-11T21:59:32.716Z,100669.34
2023-02-11T22:02:00.504Z,100678.72
2023-02-11T22:04:29.702Z,100664.72
2023-02-11T22:06:57.438Z,100669.66
2023-02-11T22:09:25.280Z,100662.50
2023-02-11T22:11:53.609Z,100656.31
2023-02-11T22:14:21.377Z,100666.91
2023-02-11T22:16:49.216Z,100676.84
2023-02-11T22:19:17.282Z,100671.56
2023-02-11T22:21:46.362Z,100670.53
2023-02-11T22:24:14.036Z,100673.16
2023-02-11T22:26:41.853Z,100669.97
2023-02-11T22:29:09.672Z,100672.72
2023-02-11T22:31:38.017Z,100678.38
2023-02-11T22:34:08.193Z,100682.50
2023-02-11T22:36:40.160Z,100678.47
2023-02-11T22:39:12.818Z,100684.22
2023-02-11T22:41:41.836Z,100686.03
2023-02-11T22:44:10.289Z,100693.69
2023-02-11T22:46:38.411Z,100682.94
2023-02-11T22:49:09.042Z,100673.13
2023-02-11T22:51:36.910Z,100669.56
2023-02-11T22:54:06.602Z,100661.66
2023-02-11T22:56:36.225Z,100672.34
2023-02-11T22:59:10.227Z,100676.97
2023-02-11T23:01:38.227Z,100687.53
2023-02-11T23:04:11.184Z,100681.75
2023-02-11T23:06:39.254Z,100673.19
2023-02-11T23:09:07.677Z,100670.09
2023-02-11T23:11:37.095Z,100669.09
2023-02-11T23:14:05.273Z,100668.22
2023-02-11T23:16:36.134Z,100667.44
2023-02-11T23:19:07.192Z,100665.78
2023-02-11T23:21:38.041Z,100673.06
2023-02-11T23:24:08.469Z,100659.81
2023-02-11T23:26:38.899Z,100660.44
2023-02-11T23:29:09.553Z,100656.84
2023-02-11T23:31:39.879Z,100655.88
2023-02-11T23:34:08.395Z,100662.09
2023-02-11T23:36:36.653Z,100678.84
2023-02-11T23:39:05.550Z,100687.66
2023-02-11T23:41:33.335Z,100678.84
2023-02-11T23:44:02.549Z,100682.28
2023-02-11T23:46:30.368Z,100684.03
2023-02-11T23:48:58.086Z,100683.94
2023-02-11T23:51:25.824Z,100681.31
2023-02-11T23:53:55.987Z,100679.38
2023-02-11T23:56:28.071Z,100675.06
2023-02-11T23:58:57.988Z,100678.56
